sensor_id;sensor_type;location;lat;lon;timestamp;pressure;altitude;pressure_sealevel;temperature;humidity
9141;BME280;46330;50.822;7.126;2022-12-16T00:01:24;100351.72;;;-8.76;100.00
9141;BME280;46330;50.822;7.126;2022-12-16T00:03:53;100352.03;;;-8.70;100.00
9141;BME280;46330;50.822;7.126;2022-12-16T00:06:25;100357.53;;;-8.62;100.00
9141;BME280;46330;50.822;7.126;2022-12-16T00:08:57;100371.13;;;-8.60;100.00
9141;BME280;46330;50.822;7.126;2022-12-16T00:11:26;100361.00;;;-8.60;100.00
9141;BME280;46330;50.822;7.126;2022-12-16T00:13:54;100360.22;;;-8.76;100.00
9141;BME280;46330;50.822;7.126;2022-12-16T00:16:21;100378.09;;;-8.73;100.00
9141;BME280;46330;50.822;7.126;2022-12-16T00:18:49;100374.84;;;-8.70;100.00
9141;BME280;46330;50.822;7.126;2022-12-16T00:21:18;100374.69;;;-8.73;100.00
9141;BME280;46330;50.822;7.126;2022-12-16T00:23:46;100367.81;;;-8.76;100.00
9141;BME280;46330;50.822;7.126;2022-12-16T00:26:15;100362.47;;;-8.80;100.00
9141;BME280;46330;50.822;7.126;2022-12-16T00:28:43;100365.84;;;-8.81;100.00
9141;BME280;46330;50.822;7.126;2022-12-16T00:31:11;100368.44;;;-8.80;99.92
9141;BME280;46330;50.822;7.126;2022-12-16T00:33:39;100376.03;;;-8.80;99.67
9141;BME280;46330;50.822;7.126;2022-12-16T00:36:08;100365.47;;;-8.87;99.18
9141;BME280;46330;50.822;7.126;2022-12-16T00:38:36;100371.41;;;-8.87;98.78
9141;BME280;46330;50.822;7.126;2022-12-16T00:41:05;100366.91;;;-8.92;98.32
9141;BME280;46330;50.822;7.126;2022-12-16T00:43:35;100366.41;;;-9.01;98.37
9141;BME280;46330;50.822;7.126;2022-12-16T00:46:02;100371.78;;;-9.11;98.71
9141;BME280;46330;50.822;7.126;2022-12-16T00:48:30;100371.22;;;-9.06;98.56
9141;BME280;46330;50.822;7.126;2022-12-16T00:50:58;100362.84;;;-9.05;98.37
9141;BME280;46330;50.822;7.126;2022-12-16T00:53:26;100357.94;;;-9.02;98.21
9141;BME280;46330;50.822;7.126;2022-12-16T00:56:00;100357.41;;;-9.12;97.82
9141;BME280;46330;50.822;7.126;2022-12-16T00:58:28;100359.25;;;-9.24;97.79
9141;BME280;46330;50.822;7.126;2022-12-16T01:00:58;100365.81;;;-9.28;97.96
9141;BME280;46330;50.822;7.126;2022-12-16T01:03:26;100364.66;;;-9.18;97.76
9141;BME280;46330;50.822;7.126;2022-12-16T01:05:54;100366.88;;;-9.08;97.79
9141;BME280;46330;50.822;7.126;2022-12-16T01:08:22;100365.47;;;-9.03;97.11
9141;BME280;46330;50.822;7.126;2022-12-16T01:10:50;100362.78;;;-9.06;95.98
9141;BME280;46330;50.822;7.126;2022-12-16T01:13:22;100361.66;;;-9.11;95.85
9141;BME280;46330;50.822;7.126;2022-12-16T01:15:51;100374.25;;;-9.13;95.43
9141;BME280;46330;50.822;7.126;2022-12-16T01:18:20;100365.59;;;-9.16;95.13
9141;BME280;46330;50.822;7.126;2022-12-16T01:20:48;100376.78;;;-9.28;95.33
9141;BME280;46330;50.822;7.126;2022-12-16T01:23:17;100379.63;;;-9.38;95.67
9141;BME280;46330;50.822;7.126;2022-12-16T01:25:48;100382.50;;;-9.32;96.44
9141;BME280;46330;50.822;7.126;2022-12-16T01:28:17;100376.78;;;-9.28;95.81
9141;BME280;46330;50.822;7.126;2022-12-16T01:30:45;100381.03;;;-9.43;95.87
9141;BME280;46330;50.822;7.126;2022-12-16T01:33:13;100384.38;;;-9.44;96.17
9141;BME280;46330;50.822;7.126;2022-12-16T01:35:42;100393.78;;;-9.41;96.03
9141;BME280;46330;50.822;7.126;2022-12-16T01:38:21;100393.63;;;-9.44;96.07
9141;BME280;46330;50.822;7.126;2022-12-16T01:40:49;100389.44;;;-9.44;96.67
9141;BME280;46330;50.822;7.126;2022-12-16T01:43:17;100389.00;;;-9.51;96.07
9141;BME280;46330;50.822;7.126;2022-12-16T01:45:47;100391.19;;;-9.57;96.28
9141;BME280;46330;50.822;7.126;2022-12-16T01:48:21;100387.69;;;-9.59;96.41
9141;BME280;46330;50.822;7.126;2022-12-16T01:51:01;100397.31;;;-9.68;96.70
9141;BME280;46330;50.822;7.126;2022-12-16T01:53:29;100388.03;;;-9.68;96.39
9141;BME280;46330;50.822;7.126;2022-12-16T01:55:59;100395.09;;;-9.77;96.69
9141;BME280;46330;50.822;7.126;2022-12-16T01:58:31;100397.41;;;-9.82;97.08
9141;BME280;46330;50.822;7.126;2022-12-16T02:01:01;100396.16;;;-9.88;97.37
9141;BME280;46330;50.822;7.126;2022-12-16T02:03:32;100404.88;;;-9.83;97.11
9141;BME280;46330;50.822;7.126;2022-12-16T02:06:05;100410.09;;;-9.80;96.96
9141;BME280;46330;50.822;7.126;2022-12-16T02:08:34;100402.69;;;-9.77;96.40
9141;BME280;46330;50.822;7.126;2022-12-16T02:11:20;100407.75;;;-9.92;96.87
9141;BME280;46330;50.822;7.126;2022-12-16T02:14:07;100406.53;;;-9.84;97.09
9141;BME280;46330;50.822;7.126;2022-12-16T02:16:42;100400.09;;;-9.78;96.67
9141;BME280;46330;50.822;7.126;2022-12-16T02:22:17;100404.88;;;-9.83;96.22
9141;BME280;46330;50.822;7.126;2022-12-16T02:25:20;100411.25;;;-9.90;96.30
9141;BME280;46330;50.822;7.126;2022-12-16T02:28:02;100404.88;;;-9.83;96.31
9141;BME280;46330;50.822;7.126;2022-12-16T02:33:52;100419.00;;;-9.87;96.34
9141;BME280;46330;50.822;7.126;2022-12-16T02:36:33;100422.34;;;-9.88;96.01
9141;BME280;46330;50.822;7.126;2022-12-16T02:39:12;100416.13;;;-9.93;95.63
9141;BME280;46330;50.822;7.126;2022-12-16T02:41:43;100413.78;;;-9.90;95.62
9141;BME280;46330;50.822;7.126;2022-12-16T02:44:15;100411.41;;;-9.87;95.11
9141;BME280;46330;50.822;7.126;2022-12-16T02:46:53;100419.88;;;-9.86;95.23
9141;BME280;46330;50.822;7.126;2022-12-16T02:49:44;100416.22;;;-9.91;95.05
9141;BME280;46330;50.822;7.126;2022-12-16T02:52:13;100423.09;;;-9.89;95.37
9141;BME280;46330;50.822;7.126;2022-12-16T02:54:42;100416.28;;;-9.90;94.62
9141;BME280;46330;50.822;7.126;2022-12-16T02:57:21;100418.47;;;-9.96;94.98
9141;BME280;46330;50.822;7.126;2022-12-16T02:59:58;100421.97;;;-9.94;95.15
9141;BME280;46330;50.822;7.126;2022-12-16T03:02:35;100425.47;;;-9.92;95.11
9141;BME280;46330;50.822;7.126;2022-12-16T03:05:09;100422.69;;;-9.96;94.96
9141;BME280;46330;50.822;7.126;2022-12-16T03:07:40;100430.34;;;-9.95;95.10
9141;BME280;46330;50.822;7.126;2022-12-16T03:10:14;100425.81;;;-10.00;95.27
9141;BME280;46330;50.822;7.126;2022-12-16T03:12:44;100429.28;;;-9.98;95.36
9141;BME280;46330;50.822;7.126;2022-12-16T03:15:15;100422.47;;;-9.99;95.01
9141;BME280;46330;50.822;7.126;2022-12-16T03:17:48;100415.09;;;-9.96;95.28
9141;BME280;46330;50.822;7.126;2022-12-16T03:20:22;100420.59;;;-9.89;95.05
9141;BME280;46330;50.822;7.126;2022-12-16T03:22:53;100417.34;;;-9.86;94.78
9141;BME280;46330;50.822;7.126;2022-12-16T03:25:23;100412.47;;;-9.83;94.41
9141;BME280;46330;50.822;7.126;2022-12-16T03:27:57;100425.03;;;-9.85;94.04
9141;BME280;46330;50.822;7.126;2022-12-16T03:30:32;100422.59;;;-9.83;94.18
9141;BME280;46330;50.822;7.126;2022-12-16T03:33:06;100415.53;;;-9.89;93.99
9141;BME280;46330;50.822;7.126;2022-12-16T03:35:37;100421.28;;;-9.91;93.95
9141;BME280;46330;50.822;7.126;2022-12-16T03:38:09;100422.22;;;-9.89;94.10
9141;BME280;46330;50.822;7.126;2022-12-16T03:40:40;100422.41;;;-9.86;93.86
9141;BME280;46330;50.822;7.126;2022-12-16T03:43:10;100423.22;;;-9.87;93.66
9141;BME280;46330;50.822;7.126;2022-12-16T03:45:42;100425.38;;;-9.93;93.50
9141;BME280;46330;50.822;7.126;2022-12-16T03:48:13;100420.06;;;-9.98;94.21
9141;BME280;46330;50.822;7.126;2022-12-16T03:50:42;100423.28;;;-10.00;93.84
9141;BME280;46330;50.822;7.126;2022-12-16T03:53:10;100435.47;;;-10.08;94.18
9141;BME280;46330;50.822;7.126;2022-12-16T03:55:38;100438.81;;;-10.09;93.92
9141;BME280;46330;50.822;7.126;2022-12-16T03:58:06;100424.47;;;-10.08;93.93
9141;BME280;46330;50.822;7.126;2022-12-16T04:00:34;100424.28;;;-10.11;93.96
9141;BME280;46330;50.822;7.126;2022-12-16T04:03:02;100428.44;;;-10.13;94.00
9141;BME280;46330;50.822;7.126;2022-12-16T04:05:32;100430.41;;;-10.08;94.50
9141;BME280;46330;50.822;7.126;2022-12-16T04:08:00;100419.69;;;-10.04;94.08
9141;BME280;46330;50.822;7.126;2022-12-16T04:10:28;100418.13;;;-10.02;93.69
9141;BME280;46330;50.822;7.126;2022-12-16T04:13:13;100428.25;;;-10.02;93.66
9141;BME280;46330;50.822;7.126;2022-12-16T04:15:59;100428.94;;;-10.04;93.30
9141;BME280;46330;50.822;7.126;2022-12-16T04:18:44;100440.81;;;-10.03;93.40
9141;BME280;46330;50.822;7.126;2022-12-16T04:21:32;100440.81;;;-10.03;92.91
9141;BME280;46330;50.822;7.126;2022-12-16T04:24:18;100437.47;;;-10.02;93.10
9141;BME280;46330;50.822;7.126;2022-12-16T04:26:47;100431.47;;;-10.04;92.59
9141;BME280;46330;50.822;7.126;2022-12-16T04:29:41;100449.69;;;-10.10;93.33
9141;BME280;46330;50.822;7.126;2022-12-16T04:32:23;100443.84;;;-10.09;93.17
9141;BME280;46330;50.822;7.126;2022-12-16T04:34:51;100439.13;;;-10.17;93.29
9141;BME280;46330;50.822;7.126;2022-12-16T04:37:19;100448.88;;;-10.23;94.06
9141;BME280;46330;50.822;7.126;2022-12-16T04:40:06;100452.22;;;-10.24;94.24
9141;BME280;46330;50.822;7.126;2022-12-16T04:42:51;100460.66;;;-10.24;93.98
9141;BME280;46330;50.822;7.126;2022-12-16T04:45:37;100455.16;;;-10.31;93.71
9141;BME280;46330;50.822;7.126;2022-12-16T04:48:22;100445.09;;;-10.45;94.02
9141;BME280;46330;50.822;7.126;2022-12-16T04:51:07;100457.72;;;-10.45;93.75
9141;BME280;46330;50.822;7.126;2022-12-16T04:53:54;100467.69;;;-10.33;94.07
9141;BME280;46330;50.822;7.126;2022-12-16T04:56:39;100472.38;;;-10.39;93.49
9141;BME280;46330;50.822;7.126;2022-12-16T04:59:24;100471.69;;;-10.37;93.79
9141;BME280;46330;50.822;7.126;2022-12-16T05:02:10;100480.56;;;-10.43;93.85
9141;BME280;46330;50.822;7.126;2022-12-16T05:04:55;100492.22;;;-10.45;93.65
9141;BME280;46330;50.822;7.126;2022-12-16T05:07:40;100494.31;;;-10.53;94.28
9141;BME280;46330;50.822;7.126;2022-12-16T05:10:26;100498.38;;;-10.55;94.54
9141;BME280;46330;50.822;7.126;2022-12-16T05:13:12;100502.28;;;-10.60;94.79
9141;BME280;46330;50.822;7.126;2022-12-16T05:15:57;100499.81;;;-10.58;94.97
9141;BME280;46330;50.822;7.126;2022-12-16T05:18:42;100505.19;;;-10.54;94.77
9141;BME280;46330;50.822;7.126;2022-12-16T05:21:40;100501.59;;;-10.57;94.50
9141;BME280;46330;50.822;7.126;2022-12-16T05:24:25;100497.28;;;-10.58;94.55
9141;BME280;46330;50.822;7.126;2022-12-16T05:27:19;100495.94;;;-10.53;94.64
9141;BME280;46330;50.822;7.126;2022-12-16T05:30:06;100505.47;;;-10.49;94.47
9141;BME280;46330;50.822;7.126;2022-12-16T05:32:59;100513.91;;;-10.49;94.53
9141;BME280;46330;50.822;7.126;2022-12-16T05:35:44;100501.97;;;-10.51;94.68
9141;BME280;46330;50.822;7.126;2022-12-16T05:38:29;100516.97;;;-10.40;94.56
9141;BME280;46330;50.822;7.126;2022-12-16T05:41:14;100520.72;;;-10.48;94.20
9141;BME280;46330;50.822;7.126;2022-12-16T05:44:01;100519.06;;;-10.47;93.84
9141;BME280;46330;50.822;7.126;2022-12-16T05:46:46;100520.34;;;-10.54;94.10
9141;BME280;46330;50.822;7.126;2022-12-16T05:49:40;100529.38;;;-10.57;94.07
9141;BME280;46330;50.822;7.126;2022-12-16T05:52:26;100531.13;;;-10.56;94.61
9141;BME280;46330;50.822;7.126;2022-12-16T05:55:11;100538.09;;;-10.52;94.18
9141;BME280;46330;50.822;7.126;2022-12-16T05:58:00;100534.22;;;-10.60;94.18
9141;BME280;46330;50.822;7.126;2022-12-16T06:00:46;100551.72;;;-10.63;94.33
9141;BME280;46330;50.822;7.126;2022-12-16T06:03:31;100553.28;;;-10.65;94.12
9141;BME280;46330;50.822;7.126;2022-12-16T06:06:17;100553.75;;;-10.71;94.24
9141;BME280;46330;50.822;7.126;2022-12-16T06:09:03;100551.91;;;-10.73;94.06
9141;BME280;46330;50.822;7.126;2022-12-16T06:11:48;100546.50;;;-10.79;94.35
9141;BME280;46330;50.822;7.126;2022-12-16T06:14:34;100558.16;;;-10.81;94.75
9141;BME280;46330;50.822;7.126;2022-12-16T06:17:21;100572.13;;;-10.73;94.52
9141;BME280;46330;50.822;7.126;2022-12-16T06:20:07;100578.75;;;-10.75;94.13
9141;BME280;46330;50.822;7.126;2022-12-16T06:23:07;100573.38;;;-10.80;93.90
9141;BME280;46330;50.822;7.126;2022-12-16T06:25:52;100564.78;;;-10.83;94.31
9141;BME280;46330;50.822;7.126;2022-12-16T06:28:37;100584.28;;;-10.81;94.05
9141;BME280;46330;50.822;7.126;2022-12-16T06:31:22;100591.75;;;-10.82;94.32
9141;BME280;46330;50.822;7.126;2022-12-16T06:34:09;100583.22;;;-10.84;94.04
9141;BME280;46330;50.822;7.126;2022-12-16T06:36:54;100599.44;;;-10.94;94.37
9141;BME280;46330;50.822;7.126;2022-12-16T06:39:40;100589.81;;;-11.00;94.76
9141;BME280;46330;50.822;7.126;2022-12-16T06:42:25;100598.25;;;-10.99;94.97
9141;BME280;46330;50.822;7.126;2022-12-16T06:45:10;100608.38;;;-10.99;94.92
9141;BME280;46330;50.822;7.126;2022-12-16T06:48:00;100616.03;;;-10.98;95.05
9141;BME280;46330;50.822;7.126;2022-12-16T06:50:47;100620.88;;;-11.01;94.71
9141;BME280;46330;50.822;7.126;2022-12-16T06:53:32;100629.59;;;-10.96;94.76
9141;BME280;46330;50.822;7.126;2022-12-16T06:56:17;100635.72;;;-10.92;94.62
9141;BME280;46330;50.822;7.126;2022-12-16T06:59:02;100630.28;;;-10.98;94.43
9141;BME280;46330;50.822;7.126;2022-12-16T07:01:48;100641.06;;;-11.01;94.43
9141;BME280;46330;50.822;7.126;2022-12-16T07:04:33;100638.91;;;-11.08;94.90
9141;BME280;46330;50.822;7.126;2022-12-16T07:07:20;100647.00;;;-11.00;95.24
9141;BME280;46330;50.822;7.126;2022-12-16T07:10:06;100644.28;;;-11.03;95.35
9141;BME280;46330;50.822;7.126;2022-12-16T07:12:51;100636.09;;;-11.12;95.84
9141;BME280;46330;50.822;7.126;2022-12-16T07:15:36;100649.00;;;-11.08;96.32
9141;BME280;46330;50.822;7.126;2022-12-16T07:18:22;100660.09;;;-11.06;96.68
9141;BME280;46330;50.822;7.126;2022-12-16T07:21:07;100668.34;;;-10.95;96.32
9141;BME280;46330;50.822;7.126;2022-12-16T07:23:53;100670.31;;;-10.91;96.35
9141;BME280;46330;50.822;7.126;2022-12-16T07:26:39;100675.56;;;-10.88;96.37
9141;BME280;46330;50.822;7.126;2022-12-16T07:29:32;100688.06;;;-10.89;96.81
9141;BME280;46330;50.822;7.126;2022-12-16T07:32:17;100688.69;;;-10.94;97.69
9141;BME280;46330;50.822;7.126;2022-12-16T07:35:03;100698.97;;;-10.90;97.80
9141;BME280;46330;50.822;7.126;2022-12-16T07:37:51;100692.38;;;-10.88;98.24
9141;BME280;46330;50.822;7.126;2022-12-16T07:40:37;100706.19;;;-10.83;98.55
9141;BME280;46330;50.822;7.126;2022-12-16T07:43:23;100711.91;;;-10.73;98.39
9141;BME280;46330;50.822;7.126;2022-12-16T07:46:07;100720.59;;;-10.69;97.97
9141;BME280;46330;50.822;7.126;2022-12-16T07:48:53;100726.59;;;-10.67;97.79
9141;BME280;46330;50.822;7.126;2022-12-16T07:51:38;100729.44;;;-10.63;98.04
9141;BME280;46330;50.822;7.126;2022-12-16T07:54:23;100728.56;;;-10.63;97.93
9141;BME280;46330;50.822;7.126;2022-12-16T07:57:10;100741.69;;;-10.56;98.27
9141;BME280;46330;50.822;7.126;2022-12-16T07:59:55;100733.53;;;-10.52;98.25
9141;BME280;46330;50.822;7.126;2022-12-16T08:02:52;100742.19;;;-10.48;98.12
9141;BME280;46330;50.822;7.126;2022-12-16T08:05:37;100751.16;;;-10.40;97.96
9141;BME280;46330;50.822;7.126;2022-12-16T08:08:23;100757.38;;;-10.35;97.90
9141;BME280;46330;50.822;7.126;2022-12-16T08:11:23;100760.50;;;-10.26;97.46
9141;BME280;46330;50.822;7.126;2022-12-16T08:14:09;100744.56;;;-10.25;97.26
9141;BME280;46330;50.822;7.126;2022-12-16T08:16:54;100757.19;;;-10.25;97.11
9141;BME280;46330;50.822;7.126;2022-12-16T08:19:39;100767.78;;;-10.17;96.64
9141;BME280;46330;50.822;7.126;2022-12-16T08:22:25;100773.41;;;-10.08;96.38
9141;BME280;46330;50.822;7.126;2022-12-16T08:25:10;100768.06;;;-10.13;95.75
9141;BME280;46330;50.822;7.126;2022-12-16T08:27:56;100776.22;;;-10.04;96.25
9141;BME280;46330;50.822;7.126;2022-12-16T08:30:42;100769.41;;;-10.05;96.35
9141;BME280;46330;50.822;7.126;2022-12-16T08:33:28;100766.81;;;-10.06;96.94
9141;BME280;46330;50.822;7.126;2022-12-16T08:36:13;100767.13;;;-10.15;96.74
9141;BME280;46330;50.822;7.126;2022-12-16T08:38:58;100764.28;;;-10.19;96.79
9141;BME280;46330;50.822;7.126;2022-12-16T08:41:43;100765.03;;;-10.07;97.60
9141;BME280;46330;50.822;7.126;2022-12-16T08:44:29;100778.00;;;-10.03;98.13
9141;BME280;46330;50.822;7.126;2022-12-16T08:47:15;100781.97;;;-9.80;97.94
9141;BME280;46330;50.822;7.126;2022-12-16T08:50:00;100777.19;;;-9.75;97.40
9141;BME280;46330;50.822;7.126;2022-12-16T08:52:46;100778.53;;;-9.67;96.84
9141;BME280;46330;50.822;7.126;2022-12-16T08:55:31;100781.75;;;-9.70;96.42
9141;BME280;46330;50.822;7.126;2022-12-16T08:58:21;100777.66;;;-9.68;96.93
9141;BME280;46330;50.822;7.126;2022-12-16T09:01:06;100790.81;;;-9.60;97.38
9141;BME280;46330;50.822;7.126;2022-12-16T09:03:53;100778.22;;;-9.46;97.09
9141;BME280;46330;50.822;7.126;2022-12-16T09:06:38;100786.31;;;-9.38;96.53
9141;BME280;46330;50.822;7.126;2022-12-16T09:09:23;100776.38;;;-9.35;96.42
9141;BME280;46330;50.822;7.126;2022-12-16T09:12:09;100785.59;;;-9.36;95.17
9141;BME280;46330;50.822;7.126;2022-12-16T09:14:54;100783.19;;;-9.34;95.17
9141;BME280;46330;50.822;7.126;2022-12-16T09:17:39;100796.28;;;-9.27;95.70
9141;BME280;46330;50.822;7.126;2022-12-16T09:20:25;100796.09;;;-9.16;95.67
9141;BME280;46330;50.822;7.126;2022-12-16T09:23:16;100795.97;;;-8.90;96.45
9141;BME280;46330;50.822;7.126;2022-12-16T09:26:02;100801.66;;;-8.94;96.21
9141;BME280;46330;50.822;7.126;2022-12-16T09:28:47;100808.47;;;-8.93;96.85
9141;BME280;46330;50.822;7.126;2022-12-16T09:31:32;100802.59;;;-8.79;97.07
9141;BME280;46330;50.822;7.126;2022-12-16T09:34:18;100808.19;;;-8.70;96.84
9141;BME280;46330;50.822;7.126;2022-12-16T09:37:05;100816.94;;;-8.65;97.27
9141;BME280;46330;50.822;7.126;2022-12-16T09:39:50;100820.44;;;-8.63;97.13
9141;BME280;46330;50.822;7.126;2022-12-16T09:42:42;100826.59;;;-8.45;96.57
9141;BME280;46330;50.822;7.126;2022-12-16T09:45:33;100834.31;;;-8.29;95.97
9141;BME280;46330;50.822;7.126;2022-12-16T09:48:29;100830.44;;;-8.22;96.01
9141;BME280;46330;50.822;7.126;2022-12-16T09:51:17;100827.56;;;-8.13;96.38
9141;BME280;46330;50.822;7.126;2022-12-16T09:54:02;100834.47;;;-8.11;96.04
9141;BME280;46330;50.822;7.126;2022-12-16T09:56:48;100845.75;;;-8.06;96.59
9141;BME280;46330;50.822;7.126;2022-12-16T09:59:36;100847.31;;;-8.08;96.47
9141;BME280;46330;50.822;7.126;2022-12-16T10:02:24;100850.56;;;-7.96;96.28
9141;BME280;46330;50.822;7.126;2022-12-16T10:05:11;100854.59;;;-7.85;96.70
9141;BME280;46330;50.822;7.126;2022-12-16T10:08:04;100853.63;;;-7.72;96.24
9141;BME280;46330;50.822;7.126;2022-12-16T10:10:59;100854.22;;;-7.62;95.56
9141;BME280;46330;50.822;7.126;2022-12-16T10:13:52;100851.66;;;-7.47;95.48
9141;BME280;46330;50.822;7.126;2022-12-16T10:16:49;100853.13;;;-7.36;95.35
9141;BME280;46330;50.822;7.126;2022-12-16T10:19:47;100852.84;;;-7.26;95.46
9141;BME280;46330;50.822;7.126;2022-12-16T10:22:38;100854.72;;;-7.07;94.84
9141;BME280;46330;50.822;7.126;2022-12-16T10:25:28;100858.88;;;-6.93;94.95
9141;BME280;46330;50.822;7.126;2022-12-16T10:28:23;100844.19;;;-6.82;94.53
9141;BME280;46330;50.822;7.126;2022-12-16T10:31:15;100848.16;;;-6.71;93.35
9141;BME280;46330;50.822;7.126;2022-12-16T10:34:04;100862.16;;;-6.47;92.95
9141;BME280;46330;50.822;7.126;2022-12-16T10:36:53;100859.69;;;-6.29;92.88
9141;BME280;46330;50.822;7.126;2022-12-16T10:39:48;100860.00;;;-6.07;92.26
9141;BME280;46330;50.822;7.126;2022-12-16T10:42:35;100866.53;;;-5.94;91.15
9141;BME280;46330;50.822;7.126;2022-12-16T10:45:28;100861.31;;;-5.80;90.51
9141;BME280;46330;50.822;7.126;2022-12-16T10:48:17;100863.72;;;-5.48;89.70
9141;BME280;46330;50.822;7.126;2022-12-16T10:51:19;100858.13;;;-5.05;88.12
9141;BME280;46330;50.822;7.126;2022-12-16T10:54:26;100852.25;;;-4.66;87.14
9141;BME280;46330;50.822;7.126;2022-12-16T10:57:23;100843.72;;;-4.47;85.12
9141;BME280;46330;50.822;7.126;2022-12-16T11:00:13;100865.03;;;-4.47;85.25
9141;BME280;46330;50.822;7.126;2022-12-16T11:03:19;100861.19;;;-4.18;84.96
9141;BME280;46330;50.822;7.126;2022-12-16T11:06:06;100864.41;;;-4.41;84.58
9141;BME280;46330;50.822;7.126;2022-12-16T11:09:14;100864.19;;;-4.07;84.95
9141;BME280;46330;50.822;7.126;2022-12-16T11:12:21;100862.84;;;-3.99;82.88
9141;BME280;46330;50.822;7.126;2022-12-16T11:15:18;100860.41;;;-3.96;81.98
9141;BME280;46330;50.822;7.126;2022-12-16T11:18:09;100859.56;;;-3.76;82.58
9141;BME280;46330;50.822;7.126;2022-12-16T11:21:11;100864.19;;;-3.67;81.89
9141;BME280;46330;50.822;7.126;2022-12-16T11:24:06;100864.94;;;-3.89;83.10
9141;BME280;46330;50.822;7.126;2022-12-16T11:26:52;100864.91;;;-3.70;82.41
9141;BME280;46330;50.822;7.126;2022-12-16T11:29:55;100852.16;;;-4.10;83.36
9141;BME280;46330;50.822;7.126;2022-12-16T11:32:44;100868.34;;;-3.69;83.77
9141;BME280;46330;50.822;7.126;2022-12-16T11:35:33;100875.00;;;-3.94;83.76
9141;BME280;46330;50.822;7.126;2022-12-16T11:38:24;100865.78;;;-3.69;83.58
9141;BME280;46330;50.822;7.126;2022-12-16T11:41:18;100875.31;;;-3.45;82.85
9141;BME280;46330;50.822;7.126;2022-12-16T11:44:07;100866.13;;;-3.19;81.61
9141;BME280;46330;50.822;7.126;2022-12-16T11:46:54;100865.81;;;-2.84;81.05
9141;BME280;46330;50.822;7.126;2022-12-16T11:49:39;100854.84;;;-2.57;79.58
9141;BME280;46330;50.822;7.126;2022-12-16T11:52:24;100856.56;;;-2.34;79.41
9141;BME280;46330;50.822;7.126;2022-12-16T11:55:13;100861.22;;;-2.23;77.00
9141;BME280;46330;50.822;7.126;2022-12-16T11:58:25;100876.22;;;-2.09;77.23
9141;BME280;46330;50.822;7.126;2022-12-16T12:01:16;100869.50;;;-2.06;75.66
9141;BME280;46330;50.822;7.126;2022-12-16T12:04:10;100863.53;;;-2.05;76.62
9141;BME280;46330;50.822;7.126;2022-12-16T12:07:12;100871.03;;;-2.11;77.30
9141;BME280;46330;50.822;7.126;2022-12-16T12:10:25;100874.22;;;-2.18;78.51
9141;BME280;46330;50.822;7.126;2022-12-16T12:13:21;100864.53;;;-2.01;78.02
9141;BME280;46330;50.822;7.126;2022-12-16T12:16:17;100867.56;;;-1.88;76.80
9141;BME280;46330;50.822;7.126;2022-12-16T12:19:09;100863.03;;;-1.96;77.72
9141;BME280;46330;50.822;7.126;2022-12-16T12:22:00;100870.03;;;-1.91;78.50
9141;BME280;46330;50.822;7.126;2022-12-16T12:24:52;100873.06;;;-2.02;78.56
9141;BME280;46330;50.822;7.126;2022-12-16T12:27:47;100871.34;;;-1.51;77.84
9141;BME280;46330;50.822;7.126;2022-12-16T12:30:43;100869.16;;;-1.41;75.93
9141;BME280;46330;50.822;7.126;2022-12-16T12:33:40;100875.00;;;-1.18;75.96
9141;BME280;46330;50.822;7.126;2022-12-16T12:36:29;100877.53;;;-1.20;74.88
9141;BME280;46330;50.822;7.126;2022-12-16T12:39:30;100886.03;;;-1.47;76.06
9141;BME280;46330;50.822;7.126;2022-12-16T12:42:27;100879.94;;;-1.24;75.72
9141;BME280;46330;50.822;7.126;2022-12-16T12:45:29;100885.84;;;-1.00;75.15
9141;BME280;46330;50.822;7.126;2022-12-16T12:48:26;100886.31;;;-1.12;75.21
9141;BME280;46330;50.822;7.126;2022-12-16T12:51:26;100887.47;;;-1.02;74.58
9141;BME280;46330;50.822;7.126;2022-12-16T12:54:18;100882.81;;;-0.87;75.04
9141;BME280;46330;50.822;7.126;2022-12-16T12:57:07;100881.00;;;-0.91;75.86
9141;BME280;46330;50.822;7.126;2022-12-16T12:59:57;100889.16;;;-1.02;75.50
9141;BME280;46330;50.822;7.126;2022-12-16T13:02:49;100885.13;;;-1.23;76.90
9141;BME280;46330;50.822;7.126;2022-12-16T13:05:38;100888.44;;;-1.52;78.04
9141;BME280;46330;50.822;7.126;2022-12-16T13:08:29;100893.16;;;-1.39;78.40
9141;BME280;46330;50.822;7.126;2022-12-16T13:11:15;100882.75;;;-1.43;78.59
9141;BME280;46330;50.822;7.126;2022-12-16T13:14:01;100890.66;;;-1.37;79.06
9141;BME280;46330;50.822;7.126;2022-12-16T13:17:04;100887.16;;;-1.13;77.88
9141;BME280;46330;50.822;7.126;2022-12-16T13:19:56;100889.38;;;-1.23;77.96
9141;BME280;46330;50.822;7.126;2022-12-16T13:22:43;100894.38;;;-1.28;78.70
9141;BME280;46330;50.822;7.126;2022-12-16T13:25:43;100900.06;;;-1.62;80.29
9141;BME280;46330;50.822;7.126;2022-12-16T13:28:35;100894.22;;;-1.57;80.22
9141;BME280;46330;50.822;7.126;2022-12-16T13:31:21;100888.94;;;-1.37;79.66
9141;BME280;46330;50.822;7.126;2022-12-16T13:34:27;100899.66;;;-1.48;80.36
9141;BME280;46330;50.822;7.126;2022-12-16T13:37:22;100893.53;;;-1.53;80.88
9141;BME280;46330;50.822;7.126;2022-12-16T13:40:15;100907.88;;;-1.58;81.64
9141;BME280;46330;50.822;7.126;2022-12-16T13:43:02;100905.97;;;-1.64;82.39
9141;BME280;46330;50.822;7.126;2022-12-16T13:46:15;100908.44;;;-1.67;83.60
9141;BME280;46330;50.822;7.126;2022-12-16T13:52:28;100918.63;;;-1.94;85.43
9141;BME280;46330;50.822;7.126;2022-12-16T13:55:17;100923.91;;;-1.89;86.26
9141;BME280;46330;50.822;7.126;2022-12-16T13:58:10;100924.41;;;-1.99;86.96
9141;BME280;46330;50.822;7.126;2022-12-16T14:01:04;100939.28;;;-2.13;87.60
9141;BME280;46330;50.822;7.126;2022-12-16T14:03:51;100938.28;;;-2.17;87.79
9141;BME280;46330;50.822;7.126;2022-12-16T14:06:40;100932.19;;;-2.20;88.08
9141;BME280;46330;50.822;7.126;2022-12-16T14:09:31;100937.97;;;-2.26;88.84
9141;BME280;46330;50.822;7.126;2022-12-16T14:12:38;100938.50;;;-2.34;89.97
9141;BME280;46330;50.822;7.126;2022-12-16T14:15:32;100960.59;;;-2.36;90.46
9141;BME280;46330;50.822;7.126;2022-12-16T14:18:28;100962.00;;;-2.44;91.21
9141;BME280;46330;50.822;7.126;2022-12-16T14:21:19;100965.16;;;-2.51;92.11
9141;BME280;46330;50.822;7.126;2022-12-16T14:24:12;100961.91;;;-2.47;91.57
9141;BME280;46330;50.822;7.126;2022-12-16T14:27:11;100959.56;;;-2.41;91.24
9141;BME280;46330;50.822;7.126;2022-12-16T14:29:57;100971.09;;;-2.52;90.64
9141;BME280;46330;50.822;7.126;2022-12-16T14:32:42;100983.94;;;-2.51;90.09